sensor_id;sensor_type;location;lat;lon;timestamp;P1;durP1;ratioP1;P2;durP2;ratioP2
17347;SDS011;8791;50.876;4.342;2022-11-20T00:01:11;63.83;;;27.80;;
17347;SDS011;8791;50.876;4.342;2022-11-20T00:03:40;69.13;;;26.90;;
17347;SDS011;8791;50.876;4.342;2022-11-20T00:06:07;60.50;;;28.20;;
17347;SDS011;8791;50.876;4.342;2022-11-20T00:08:36;73.00;;;27.57;;
17347;SDS011;8791;50.876;4.342;2022-11-20T00:11:03;64.27;;;28.97;;
17347;SDS011;8791;50.876;4.342;2022-11-20T00:13:31;63.00;;;27.93;;
17347;SDS011;8791;50.876;4.342;2022-11-20T00:15:58;68.60;;;28.93;;
17347;SDS011;8791;50.876;4.342;2022-11-20T00:18:29;70.03;;;31.07;;
17347;SDS011;8791;50.876;4.342;2022-11-20T00:21:00;69.83;;;29.87;;
17347;SDS011;8791;50.876;4.342;2022-11-20T00:23:27;59.13;;;27.83;;
17347;SDS011;8791;50.876;4.342;2022-11-20T00:25:54;63.03;;;28.27;;
17347;SDS011;8791;50.876;4.342;2022-11-20T00:28:21;70.80;;;30.60;;
17347;SDS011;8791;50.876;4.342;2022-11-20T00:30:47;73.30;;;30.73;;
17347;SDS011;8791;50.876;4.342;2022-11-20T00:33:14;64.50;;;28.80;;
17347;SDS011;8791;50.876;4.342;2022-11-20T00:35:42;75.10;;;31.30;;
17347;SDS011;8791;50.876;4.342;2022-11-20T00:38:09;69.43;;;32.07;;
17347;SDS011;8791;50.876;4.342;2022-11-20T00:40:36;72.03;;;31.70;;
17347;SDS011;8791;50.876;4.342;2022-11-20T00:43:03;65.00;;;30.00;;
17347;SDS011;8791;50.876;4.342;2022-11-20T00:45:29;75.40;;;32.37;;
17347;SDS011;8791;50.876;4.342;2022-11-20T00:47:56;71.07;;;32.47;;
17347;SDS011;8791;50.876;4.342;2022-11-20T00:50:23;72.20;;;32.13;;
17347;SDS011;8791;50.876;4.342;2022-11-20T00:52:51;76.33;;;31.97;;
17347;SDS011;8791;50.876;4.342;2022-11-20T00:55:18;70.23;;;32.23;;
17347;SDS011;8791;50.876;4.342;2022-11-20T00:57:45;71.70;;;32.87;;
17347;SDS011;8791;50.876;4.342;2022-11-20T01:00:12;72.90;;;31.87;;
17347;SDS011;8791;50.876;4.342;2022-11-20T01:02:39;70.50;;;34.07;;
17347;SDS011;8791;50.876;4.342;2022-11-20T01:05:06;67.67;;;32.47;;
17347;SDS011;8791;50.876;4.342;2022-11-20T01:07:33;78.07;;;33.07;;
17347;SDS011;8791;50.876;4.342;2022-11-20T01:10:01;73.80;;;32.37;;
17347;SDS011;8791;50.876;4.342;2022-11-20T01:12:28;86.33;;;35.83;;
17347;SDS011;8791;50.876;4.342;2022-11-20T01:14:55;75.73;;;32.63;;
17347;SDS011;8791;50.876;4.342;2022-11-20T01:17:21;81.23;;;34.53;;
17347;SDS011;8791;50.876;4.342;2022-11-20T01:19:48;71.57;;;32.13;;
17347;SDS011;8791;50.876;4.342;2022-11-20T01:22:16;81.10;;;33.47;;
17347;SDS011;8791;50.876;4.342;2022-11-20T01:24:42;92.50;;;34.30;;
17347;SDS011;8791;50.876;4.342;2022-11-20T01:27:11;82.43;;;33.80;;
17347;SDS011;8791;50.876;4.342;2022-11-20T01:29:37;80.53;;;33.33;;
17347;SDS011;8791;50.876;4.342;2022-11-20T01:32:04;77.17;;;31.93;;
17347;SDS011;8791;50.876;4.342;2022-11-20T01:34:31;72.73;;;33.60;;
17347;SDS011;8791;50.876;4.342;2022-11-20T01:36:58;72.30;;;32.73;;
17347;SDS011;8791;50.876;4.342;2022-11-20T01:39:25;70.00;;;32.03;;
17347;SDS011;8791;50.876;4.342;2022-11-20T01:41:53;70.63;;;31.73;;
17347;SDS011;8791;50.876;4.342;2022-11-20T01:44:53;72.87;;;32.67;;
17347;SDS011;8791;50.876;4.342;2022-11-20T01:47:24;84.13;;;33.37;;
17347;SDS011;8791;50.876;4.342;2022-11-20T01:49:55;71.00;;;31.20;;
17347;SDS011;8791;50.876;4.342;2022-11-20T01:52:26;79.07;;;31.83;;
17347;SDS011;8791;50.876;4.342;2022-11-20T01:54:58;81.43;;;34.97;;
17347;SDS011;8791;50.876;4.342;2022-11-20T01:57:30;76.03;;;33.30;;
17347;SDS011;8791;50.876;4.342;2022-11-20T02:00:01;73.73;;;31.80;;
17347;SDS011;8791;50.876;4.342;2022-11-20T02:02:31;84.03;;;32.57;;
17347;SDS011;8791;50.876;4.342;2022-11-20T02:05:00;81.07;;;33.63;;
17347;SDS011;8791;50.876;4.342;2022-11-20T02:07:35;73.20;;;31.63;;
17347;SDS011;8791;50.876;4.342;2022-11-20T02:10:03;79.20;;;33.50;;
17347;SDS011;8791;50.876;4.342;2022-11-20T02:12:30;81.87;;;33.93;;
17347;SDS011;8791;50.876;4.342;2022-11-20T02:15:16;79.20;;;32.43;;
17347;SDS011;8791;50.876;4.342;2022-11-20T02:17:43;83.57;;;33.20;;
17347;SDS011;8791;50.876;4.342;2022-11-20T02:20:10;72.57;;;31.83;;
17347;SDS011;8791;50.876;4.342;2022-11-20T02:22:38;74.43;;;30.73;;
17347;SDS011;8791;50.876;4.342;2022-11-20T02:25:12;70.63;;;30.63;;
17347;SDS011;8791;50.876;4.342;2022-11-20T02:27:40;71.27;;;29.00;;
17347;SDS011;8791;50.876;4.342;2022-11-20T02:30:08;65.83;;;29.33;;
17347;SDS011;8791;50.876;4.342;2022-11-20T02:32:37;66.93;;;29.57;;
17347;SDS011;8791;50.876;4.342;2022-11-20T02:35:06;61.17;;;27.20;;
17347;SDS011;8791;50.876;4.342;2022-11-20T02:37:36;60.93;;;27.77;;
17347;SDS011;8791;50.876;4.342;2022-11-20T02:40:06;58.90;;;26.80;;
17347;SDS011;8791;50.876;4.342;2022-11-20T02:42:35;62.97;;;28.60;;
17347;SDS011;8791;50.876;4.342;2022-11-20T02:45:02;54.47;;;27.70;;
17347;SDS011;8791;50.876;4.342;2022-11-20T02:47:30;57.27;;;27.43;;
17347;SDS011;8791;50.876;4.342;2022-11-20T02:49:57;57.93;;;25.73;;
17347;SDS011;8791;50.876;4.342;2022-11-20T02:52:24;56.30;;;26.53;;
17347;SDS011;8791;50.876;4.342;2022-11-20T02:54:51;53.57;;;26.23;;
17347;SDS011;8791;50.876;4.342;2022-11-20T02:57:18;54.17;;;26.27;;
17347;SDS011;8791;50.876;4.342;2022-11-20T02:59:46;60.87;;;27.17;;
17347;SDS011;8791;50.876;4.342;2022-11-20T03:02:13;59.73;;;28.83;;
17347;SDS011;8791;50.876;4.342;2022-11-20T03:04:40;60.27;;;26.10;;
17347;SDS011;8791;50.876;4.342;2022-11-20T03:07:07;58.47;;;26.37;;
17347;SDS011;8791;50.876;4.342;2022-11-20T03:09:34;58.90;;;26.30;;
17347;SDS011;8791;50.876;4.342;2022-11-20T03:12:01;53.20;;;25.23;;
17347;SDS011;8791;50.876;4.342;2022-11-20T03:14:28;60.13;;;24.93;;
17347;SDS011;8791;50.876;4.342;2022-11-20T03:16:56;54.97;;;25.03;;
17347;SDS011;8791;50.876;4.342;2022-11-20T03:19:23;61.67;;;26.63;;
17347;SDS011;8791;50.876;4.342;2022-11-20T03:21:50;56.23;;;25.37;;
17347;SDS011;8791;50.876;4.342;2022-11-20T03:24:17;56.93;;;24.30;;
17347;SDS011;8791;50.876;4.342;2022-11-20T03:26:43;53.23;;;23.57;;
17347;SDS011;8791;50.876;4.342;2022-11-20T03:29:10;61.93;;;24.90;;
17347;SDS011;8791;50.876;4.342;2022-11-20T03:31:38;54.33;;;24.53;;
17347;SDS011;8791;50.876;4.342;2022-11-20T03:34:08;65.20;;;25.70;;
17347;SDS011;8791;50.876;4.342;2022-11-20T03:36:37;53.23;;;24.53;;
17347;SDS011;8791;50.876;4.342;2022-11-20T03:39:04;54.33;;;23.50;;
17347;SDS011;8791;50.876;4.342;2022-11-20T03:41:31;47.67;;;23.23;;
17347;SDS011;8791;50.876;4.342;2022-11-20T03:44:03;53.10;;;24.07;;
17347;SDS011;8791;50.876;4.342;2022-11-20T03:46:31;62.53;;;25.00;;
17347;SDS011;8791;50.876;4.342;2022-11-20T03:48:58;54.93;;;25.07;;
17347;SDS011;8791;50.876;4.342;2022-11-20T03:51:26;60.80;;;25.57;;
17347;SDS011;8791;50.876;4.342;2022-11-20T03:53:55;60.60;;;25.73;;
17347;SDS011;8791;50.876;4.342;2022-11-20T03:56:24;54.83;;;24.80;;
17347;SDS011;8791;50.876;4.342;2022-11-20T03:58:52;57.83;;;24.87;;
17347;SDS011;8791;50.876;4.342;2022-11-20T04:01:20;57.97;;;24.97;;
17347;SDS011;8791;50.876;4.342;2022-11-20T04:03:48;54.47;;;25.07;;
17347;SDS011;8791;50.876;4.342;2022-11-20T04:06:18;59.83;;;25.13;;
17347;SDS011;8791;50.876;4.342;2022-11-20T04:08:47;57.00;;;24.93;;
17347;SDS011;8791;50.876;4.342;2022-11-20T04:11:15;57.80;;;26.07;;
17347;SDS011;8791;50.876;4.342;2022-11-20T04:13:45;60.20;;;25.10;;
17347;SDS011;8791;50.876;4.342;2022-11-20T04:16:13;55.57;;;24.00;;
17347;SDS011;8791;50.876;4.342;2022-11-20T04:18:41;58.30;;;24.97;;
17347;SDS011;8791;50.876;4.342;2022-11-20T04:21:08;59.60;;;24.47;;
17347;SDS011;8791;50.876;4.342;2022-11-20T04:23:36;53.97;;;24.80;;
17347;SDS011;8791;50.876;4.342;2022-11-20T04:26:05;57.03;;;25.27;;
17347;SDS011;8791;50.876;4.342;2022-11-20T04:28:32;62.13;;;26.37;;
17347;SDS011;8791;50.876;4.342;2022-11-20T04:31:03;61.53;;;25.83;;
17347;SDS011;8791;50.876;4.342;2022-11-20T04:33:31;65.03;;;26.43;;
17347;SDS011;8791;50.876;4.342;2022-11-20T04:35:59;61.57;;;25.20;;
17347;SDS011;8791;50.876;4.342;2022-11-20T04:38:28;62.57;;;26.00;;
17347;SDS011;8791;50.876;4.342;2022-11-20T04:40:58;61.13;;;25.67;;
17347;SDS011;8791;50.876;4.342;2022-11-20T04:43:26;64.77;;;25.90;;
17347;SDS011;8791;50.876;4.342;2022-11-20T04:45:54;71.73;;;27.87;;
17347;SDS011;8791;50.876;4.342;2022-11-20T04:48:22;73.17;;;27.20;;
17347;SDS011;8791;50.876;4.342;2022-11-20T04:50:49;68.63;;;27.63;;
17347;SDS011;8791;50.876;4.342;2022-11-20T04:53:16;74.20;;;26.40;;
17347;SDS011;8791;50.876;4.342;2022-11-20T04:55:43;71.50;;;27.57;;
17347;SDS011;8791;50.876;4.342;2022-11-20T04:58:10;68.87;;;26.90;;
17347;SDS011;8791;50.876;4.342;2022-11-20T05:00:39;76.03;;;28.27;;
17347;SDS011;8791;50.876;4.342;2022-11-20T05:03:06;75.97;;;28.37;;
17347;SDS011;8791;50.876;4.342;2022-11-20T05:05:33;78.27;;;28.80;;
17347;SDS011;8791;50.876;4.342;2022-11-20T05:08:00;81.40;;;28.73;;
17347;SDS011;8791;50.876;4.342;2022-11-20T05:10:27;71.87;;;27.67;;
17347;SDS011;8791;50.876;4.342;2022-11-20T05:12:54;70.90;;;27.83;;
17347;SDS011;8791;50.876;4.342;2022-11-20T05:15:22;80.03;;;29.83;;
17347;SDS011;8791;50.876;4.342;2022-11-20T05:17:51;80.97;;;27.13;;
17347;SDS011;8791;50.876;4.342;2022-11-20T05:20:19;72.23;;;27.40;;
17347;SDS011;8791;50.876;4.342;2022-11-20T05:22:45;71.43;;;27.03;;
17347;SDS011;8791;50.876;4.342;2022-11-20T05:25:12;80.80;;;28.67;;
17347;SDS011;8791;50.876;4.342;2022-11-20T05:27:39;76.87;;;29.03;;
17347;SDS011;8791;50.876;4.342;2022-11-20T05:30:06;80.03;;;27.50;;
17347;SDS011;8791;50.876;4.342;2022-11-20T05:32:34;76.40;;;28.53;;
17347;SDS011;8791;50.876;4.342;2022-11-20T05:35:02;76.97;;;29.30;;
17347;SDS011;8791;50.876;4.342;2022-11-20T05:37:29;78.27;;;28.97;;
17347;SDS011;8791;50.876;4.342;2022-11-20T05:39:56;73.30;;;27.97;;
17347;SDS011;8791;50.876;4.342;2022-11-20T05:42:23;84.70;;;30.70;;
17347;SDS011;8791;50.876;4.342;2022-11-20T05:44:56;84.00;;;30.27;;
17347;SDS011;8791;50.876;4.342;2022-11-20T05:47:23;82.93;;;29.53;;
17347;SDS011;8791;50.876;4.342;2022-11-20T05:49:49;80.67;;;28.93;;
17347;SDS011;8791;50.876;4.342;2022-11-20T05:52:18;87.63;;;31.67;;
17347;SDS011;8791;50.876;4.342;2022-11-20T05:54:45;84.40;;;29.67;;
17347;SDS011;8791;50.876;4.342;2022-11-20T05:57:11;88.87;;;31.40;;
17347;SDS011;8791;50.876;4.342;2022-11-20T05:59:38;89.83;;;29.63;;
17347;SDS011;8791;50.876;4.342;2022-11-20T06:02:05;85.27;;;29.47;;
17347;SDS011;8791;50.876;4.342;2022-11-20T06:04:32;95.70;;;30.60;;
17347;SDS011;8791;50.876;4.342;2022-11-20T06:06:59;92.97;;;30.30;;
17347;SDS011;8791;50.876;4.342;2022-11-20T06:09:27;85.53;;;28.97;;
17347;SDS011;8791;50.876;4.342;2022-11-20T06:11:54;84.73;;;30.43;;
17347;SDS011;8791;50.876;4.342;2022-11-20T06:14:20;87.07;;;28.53;;
17347;SDS011;8791;50.876;4.342;2022-11-20T06:16:47;89.30;;;28.83;;
17347;SDS011;8791;50.876;4.342;2022-11-20T06:19:14;82.77;;;27.97;;
17347;SDS011;8791;50.876;4.342;2022-11-20T06:21:41;87.20;;;28.30;;
17347;SDS011;8791;50.876;4.342;2022-11-20T06:24:08;83.97;;;28.50;;
17347;SDS011;8791;50.876;4.342;2022-11-20T06:26:37;89.53;;;28.97;;
17347;SDS011;8791;50.876;4.342;2022-11-20T06:29:04;86.63;;;28.80;;
17347;SDS011;8791;50.876;4.342;2022-11-20T06:31:30;87.10;;;30.73;;
17347;SDS011;8791;50.876;4.342;2022-11-20T06:34:00;91.57;;;29.57;;
17347;SDS011;8791;50.876;4.342;2022-11-20T06:36:27;87.77;;;30.27;;
17347;SDS011;8791;50.876;4.342;2022-11-20T06:38:53;80.67;;;28.80;;
17347;SDS011;8791;50.876;4.342;2022-11-20T06:41:21;92.77;;;31.00;;
17347;SDS011;8791;50.876;4.342;2022-11-20T06:43:50;93.37;;;30.80;;
17347;SDS011;8791;50.876;4.342;2022-11-20T06:46:17;94.43;;;30.43;;
17347;SDS011;8791;50.876;4.342;2022-11-20T06:48:45;85.83;;;29.93;;
17347;SDS011;8791;50.876;4.342;2022-11-20T06:51:13;88.90;;;30.30;;
17347;SDS011;8791;50.876;4.342;2022-11-20T06:53:40;88.57;;;29.40;;
17347;SDS011;8791;50.876;4.342;2022-11-20T06:56:07;88.07;;;29.40;;
17347;SDS011;8791;50.876;4.342;2022-11-20T06:58:34;79.73;;;28.17;;
17347;SDS011;8791;50.876;4.342;2022-11-20T07:01:03;88.03;;;28.17;;
17347;SDS011;8791;50.876;4.342;2022-11-20T07:03:32;79.80;;;29.73;;
17347;SDS011;8791;50.876;4.342;2022-11-20T07:05:59;73.23;;;28.87;;
17347;SDS011;8791;50.876;4.342;2022-11-20T07:08:27;79.27;;;29.30;;
17347;SDS011;8791;50.876;4.342;2022-11-20T07:10:56;80.87;;;28.87;;
17347;SDS011;8791;50.876;4.342;2022-11-20T07:13:24;78.67;;;27.83;;
17347;SDS011;8791;50.876;4.342;2022-11-20T07:15:51;73.37;;;28.40;;
17347;SDS011;8791;50.876;4.342;2022-11-20T07:18:19;80.60;;;28.37;;
17347;SDS011;8791;50.876;4.342;2022-11-20T07:20:46;78.80;;;27.97;;
17347;SDS011;8791;50.876;4.342;2022-11-20T07:23:13;79.53;;;28.37;;
17347;SDS011;8791;50.876;4.342;2022-11-20T07:25:40;76.87;;;27.73;;
17347;SDS011;8791;50.876;4.342;2022-11-20T07:28:07;76.03;;;27.97;;
17347;SDS011;8791;50.876;4.342;2022-11-20T07:30:35;81.67;;;28.33;;
17347;SDS011;8791;50.876;4.342;2022-11-20T07:33:02;79.43;;;29.30;;
17347;SDS011;8791;50.876;4.342;2022-11-20T07:35:31;81.93;;;28.23;;
17347;SDS011;8791;50.876;4.342;2022-11-20T07:37:57;73.53;;;27.47;;
17347;SDS011;8791;50.876;4.342;2022-11-20T07:40:24;75.73;;;27.37;;
17347;SDS011;8791;50.876;4.342;2022-11-20T07:42:52;77.47;;;26.90;;
17347;SDS011;8791;50.876;4.342;2022-11-20T07:45:20;79.90;;;27.17;;
17347;SDS011;8791;50.876;4.342;2022-11-20T07:47:48;78.23;;;27.70;;
17347;SDS011;8791;50.876;4.342;2022-11-20T07:50:15;76.87;;;27.27;;
17347;SDS011;8791;50.876;4.342;2022-11-20T07:52:44;73.80;;;26.43;;
17347;SDS011;8791;50.876;4.342;2022-11-20T07:55:11;78.67;;;26.60;;
17347;SDS011;8791;50.876;4.342;2022-11-20T07:57:38;76.83;;;26.50;;
17347;SDS011;8791;50.876;4.342;2022-11-20T08:00:06;72.77;;;26.13;;
17347;SDS011;8791;50.876;4.342;2022-11-20T08:02:36;81.20;;;26.50;;
17347;SDS011;8791;50.876;4.342;2022-11-20T08:05:04;96.13;;;26.80;;
17347;SDS011;8791;50.876;4.342;2022-11-20T08:07:34;79.03;;;26.43;;
17347;SDS011;8791;50.876;4.342;2022-11-20T08:10:03;84.27;;;26.10;;
17347;SDS011;8791;50.876;4.342;2022-11-20T08:12:31;82.80;;;26.47;;
17347;SDS011;8791;50.876;4.342;2022-11-20T08:15:15;86.10;;;25.27;;
17347;SDS011;8791;50.876;4.342;2022-11-20T08:17:42;83.63;;;27.53;;
17347;SDS011;8791;50.876;4.342;2022-11-20T08:20:09;75.00;;;25.83;;
17347;SDS011;8791;50.876;4.342;2022-11-20T08:22:36;83.37;;;26.20;;
17347;SDS011;8791;50.876;4.342;2022-11-20T08:25:05;81.50;;;25.40;;
17347;SDS011;8791;50.876;4.342;2022-11-20T08:27:32;78.40;;;25.77;;
17347;SDS011;8791;50.876;4.342;2022-11-20T08:29:59;65.97;;;25.13;;
17347;SDS011;8791;50.876;4.342;2022-11-20T08:32:26;68.40;;;24.50;;
17347;SDS011;8791;50.876;4.342;2022-11-20T08:34:53;69.43;;;23.40;;
17347;SDS011;8791;50.876;4.342;2022-11-20T08:37:19;64.33;;;24.37;;
17347;SDS011;8791;50.876;4.342;2022-11-20T08:39:46;77.97;;;25.80;;
17347;SDS011;8791;50.876;4.342;2022-11-20T08:42:14;75.27;;;26.37;;
17347;SDS011;8791;50.876;4.342;2022-11-20T08:44:41;74.30;;;27.00;;
17347;SDS011;8791;50.876;4.342;2022-11-20T08:47:08;75.43;;;26.23;;
17347;SDS011;8791;50.876;4.342;2022-11-20T08:49:35;66.33;;;24.43;;
17347;SDS011;8791;50.876;4.342;2022-11-20T08:52:02;75.67;;;25.33;;
17347;SDS011;8791;50.876;4.342;2022-11-20T08:54:29;84.33;;;26.83;;
17347;SDS011;8791;50.876;4.342;2022-11-20T08:56:56;76.47;;;26.97;;
17347;SDS011;8791;50.876;4.342;2022-11-20T08:59:24;79.07;;;27.40;;
17347;SDS011;8791;50.876;4.342;2022-11-20T09:01:50;82.03;;;29.63;;
17347;SDS011;8791;50.876;4.342;2022-11-20T09:04:17;89.63;;;33.30;;
17347;SDS011;8791;50.876;4.342;2022-11-20T09:06:44;77.47;;;29.43;;
17347;SDS011;8791;50.876;4.342;2022-11-20T09:09:11;90.50;;;32.43;;
17347;SDS011;8791;50.876;4.342;2022-11-20T09:11:38;81.70;;;29.37;;
17347;SDS011;8791;50.876;4.342;2022-11-20T09:14:04;74.37;;;26.13;;
17347;SDS011;8791;50.876;4.342;2022-11-20T09:16:33;70.00;;;26.20;;
17347;SDS011;8791;50.876;4.342;2022-11-20T09:18:59;69.83;;;26.17;;
17347;SDS011;8791;50.876;4.342;2022-11-20T09:21:26;70.10;;;23.97;;
17347;SDS011;8791;50.876;4.342;2022-11-20T09:23:53;59.60;;;24.00;;
17347;SDS011;8791;50.876;4.342;2022-11-20T09:26:20;62.33;;;24.30;;
17347;SDS011;8791;50.876;4.342;2022-11-20T09:28:47;78.87;;;33.60;;
17347;SDS011;8791;50.876;4.342;2022-11-20T09:31:17;63.23;;;25.23;;
17347;SDS011;8791;50.876;4.342;2022-11-20T09:33:49;63.53;;;23.93;;
17347;SDS011;8791;50.876;4.342;2022-11-20T09:36:16;65.43;;;23.20;;
17347;SDS011;8791;50.876;4.342;2022-11-20T09:38:44;57.83;;;24.80;;
17347;SDS011;8791;50.876;4.342;2022-11-20T09:41:16;57.50;;;24.03;;
17347;SDS011;8791;50.876;4.342;2022-11-20T09:43:56;58.87;;;21.83;;
17347;SDS011;8791;50.876;4.342;2022-11-20T09:46:32;56.50;;;21.17;;
17347;SDS011;8791;50.876;4.342;2022-11-20T09:49:09;52.13;;;21.17;;
17347;SDS011;8791;50.876;4.342;2022-11-20T09:51:51;47.60;;;19.80;;
17347;SDS011;8791;50.876;4.342;2022-11-20T09:54:25;48.47;;;20.47;;
17347;SDS011;8791;50.876;4.342;2022-11-20T09:56:58;49.00;;;21.77;;
17347;SDS011;8791;50.876;4.342;2022-11-20T09:59:29;44.73;;;20.03;;
17347;SDS011;8791;50.876;4.342;2022-11-20T10:02:01;51.47;;;20.60;;
17347;SDS011;8791;50.876;4.342;2022-11-20T10:04:38;43.80;;;18.90;;
17347;SDS011;8791;50.876;4.342;2022-11-20T10:07:15;43.77;;;18.63;;
17347;SDS011;8791;50.876;4.342;2022-11-20T10:09:47;44.97;;;18.23;;
17347;SDS011;8791;50.876;4.342;2022-11-20T10:12:19;43.30;;;17.83;;
17347;SDS011;8791;50.876;4.342;2022-11-20T10:14:58;47.33;;;19.30;;
17347;SDS011;8791;50.876;4.342;2022-11-20T10:17:35;42.90;;;16.83;;
17347;SDS011;8791;50.876;4.342;2022-11-20T10:20:18;41.97;;;19.67;;
17347;SDS011;8791;50.876;4.342;2022-11-20T10:22:56;31.70;;;16.20;;
17347;SDS011;8791;50.876;4.342;2022-11-20T10:25:37;35.87;;;15.60;;
17347;SDS011;8791;50.876;4.342;2022-11-20T10:30:57;35.33;;;15.33;;
17347;SDS011;8791;50.876;4.342;2022-11-20T10:33:29;28.77;;;13.50;;
17347;SDS011;8791;50.876;4.342;2022-11-20T10:36:05;25.73;;;11.47;;
17347;SDS011;8791;50.876;4.342;2022-11-20T10:38:37;23.23;;;10.70;;
17347;SDS011;8791;50.876;4.342;2022-11-20T10:41:08;25.20;;;10.63;;
17347;SDS011;8791;50.876;4.342;2022-11-20T10:43:54;20.60;;;10.47;;
17347;SDS011;8791;50.876;4.342;2022-11-20T10:46:29;24.97;;;9.87;;
17347;SDS011;8791;50.876;4.342;2022-11-20T10:49:04;14.50;;;7.80;;
17347;SDS011;8791;50.876;4.342;2022-11-20T10:51:39;21.70;;;8.53;;
17347;SDS011;8791;50.876;4.342;2022-11-20T10:54:19;17.53;;;8.50;;
17347;SDS011;8791;50.876;4.342;2022-11-20T10:56:54;14.10;;;8.07;;
17347;SDS011;8791;50.876;4.342;2022-11-20T10:59:38;16.17;;;6.70;;
17347;SDS011;8791;50.876;4.342;2022-11-20T11:02:15;22.93;;;7.97;;
17347;SDS011;8791;50.876;4.342;2022-11-20T11:04:44;16.10;;;6.33;;
17347;SDS011;8791;50.876;4.342;2022-11-20T11:07:14;17.37;;;6.97;;
17347;SDS011;8791;50.876;4.342;2022-11-20T11:09:44;26.43;;;8.73;;
17347;SDS011;8791;50.876;4.342;2022-11-20T11:12:14;21.10;;;6.93;;
17347;SDS011;8791;50.876;4.342;2022-11-20T11:14:42;17.77;;;5.97;;
17347;SDS011;8791;50.876;4.342;2022-11-20T11:17:25;11.70;;;6.23;;
17347;SDS011;8791;50.876;4.342;2022-11-20T11:20:01;10.93;;;5.13;;
17347;SDS011;8791;50.876;4.342;2022-11-20T11:22:43;10.90;;;5.40;;
17347;SDS011;8791;50.876;4.342;2022-11-20T11:25:22;11.87;;;4.73;;
17347;SDS011;8791;50.876;4.342;2022-11-20T11:27:54;9.70;;;4.57;;
17347;SDS011;8791;50.876;4.342;2022-11-20T11:30:22;10.07;;;4.83;;
17347;SDS011;8791;50.876;4.342;2022-11-20T11:32:50;7.90;;;4.77;;
17347;SDS011;8791;50.876;4.342;2022-11-20T11:35:21;11.10;;;4.43;;
17347;SDS011;8791;50.876;4.342;2022-11-20T11:37:51;11.77;;;5.07;;
17347;SDS011;8791;50.876;4.342;2022-11-20T11:40:20;9.07;;;4.53;;
17347;SDS011;8791;50.876;4.342;2022-11-20T11:42:54;9.67;;;4.17;;
17347;SDS011;8791;50.876;4.342;2022-11-20T11:45:23;8.17;;;4.20;;
17347;SDS011;8791;50.876;4.342;2022-11-20T11:47:51;7.60;;;4.03;;
17347;SDS011;8791;50.876;4.342;2022-11-20T11:50:20;9.87;;;3.60;;
17347;SDS011;8791;50.876;4.342;2022-11-20T11:52:55;14.43;;;5.40;;
17347;SDS011;8791;50.876;4.342;2022-11-20T11:55:29;8.03;;;4.20;;
17347;SDS011;8791;50.876;4.342;2022-11-20T11:58:09;8.03;;;4.90;;
17347;SDS011;8791;50.876;4.342;2022-11-20T12:00:45;10.00;;;4.30;;
17347;SDS011;8791;50.876;4.342;2022-11-20T12:03:20;11.60;;;4.17;;
17347;SDS011;8791;50.876;4.342;2022-11-20T12:05:55;10.17;;;4.93;;
17347;SDS011;8791;50.876;4.342;2022-11-20T12:08:26;13.87;;;5.20;;
17347;SDS011;8791;50.876;4.342;2022-11-20T12:10:58;10.07;;;5.37;;
17347;SDS011;8791;50.876;4.342;2022-11-20T12:13:34;10.60;;;6.20;;
17347;SDS011;8791;50.876;4.342;2022-11-20T12:16:07;17.10;;;7.00;;
17347;SDS011;8791;50.876;4.342;2022-11-20T12:18:38;8.43;;;4.10;;
17347;SDS011;8791;50.876;4.342;2022-11-20T12:21:08;14.73;;;4.77;;
17347;SDS011;8791;50.876;4.342;2022-11-20T12:23:50;8.37;;;3.50;;
17347;SDS011;8791;50.876;4.342;2022-11-20T12:26:50;12.83;;;3.87;;
17347;SDS011;8791;50.876;4.342;2022-11-20T12:29:31;10.27;;;4.00;;
17347;SDS011;8791;50.876;4.342;2022-11-20T12:32:17;6.77;;;3.70;;
17347;SDS011;8791;50.876;4.342;2022-11-20T12:35:00;6.00;;;2.93;;
17347;SDS011;8791;50.876;4.342;2022-11-20T12:37:41;8.80;;;3.67;;
17347;SDS011;8791;50.876;4.342;2022-11-20T12:40:23;8.17;;;3.43;;
17347;SDS011;8791;50.876;4.342;2022-11-20T12:43:01;16.13;;;4.93;;
17347;SDS011;8791;50.876;4.342;2022-11-20T12:46:08;5.50;;;3.87;;
17347;SDS011;8791;50.876;4.342;2022-11-20T12:48:49;8.53;;;4.37;;
17347;SDS011;8791;50.876;4.342;2022-11-20T12:51:28;7.87;;;4.30;;
17347;SDS011;8791;50.876;4.342;2022-11-20T12:54:21;8.10;;;3.70;;
17347;SDS011;8791;50.876;4.342;2022-11-20T12:57:09;13.07;;;4.37;;
17347;SDS011;8791;50.876;4.342;2022-11-20T12:59:55;17.33;;;4.77;;
17347;SDS011;8791;50.876;4.342;2022-11-20T13:02:43;12.93;;;4.53;;
17347;SDS011;8791;50.876;4.342;2022-11-20T13:05:36;11.40;;;4.37;;
17347;SDS011;8791;50.876;4.342;2022-11-20T13:08:18;10.27;;;4.77;;
17347;SDS011;8791;50.876;4.342;2022-11-20T13:10:49;8.50;;;3.60;;
17347;SDS011;8791;50.876;4.342;2022-11-20T13:13:25;8.23;;;4.20;;
17347;SDS011;8791;50.876;4.342;2022-11-20T13:16:01;12.70;;;4.20;;
17347;SDS011;8791;50.876;4.342;2022-11-20T13:18:35;7.97;;;3.93;;
17347;SDS011;8791;50.876;4.342;2022-11-20T13:21:13;13.80;;;6.03;;
17347;SDS011;8791;50.876;4.342;2022-11-20T13:23:41;9.90;;;4.70;;
17347;SDS011;8791;50.876;4.342;2022-11-20T13:26:14;6.63;;;3.73;;
17347;SDS011;8791;50.876;4.342;2022-11-20T13:28:46;10.50;;;3.83;;
17347;SDS011;8791;50.876;4.342;2022-11-20T13:31:28;6.63;;;3.40;;
17347;SDS011;8791;50.876;4.342;2022-11-20T13:33:58;7.83;;;3.93;;
17347;SDS011;8791;50.876;4.342;2022-11-20T13:36:28;6.93;;;3.73;;
17347;SDS011;8791;50.876;4.342;2022-11-20T13:38:57;11.30;;;3.47;;
17347;SDS011;8791;50.876;4.342;2022-11-20T13:41:25;4.90;;;3.40;;
17347;SDS011;8791;50.876;4.342;2022-11-20T13:44:04;6.20;;;3.20;;
17347;SDS011;8791;50.876;4.342;2022-11-20T13:46:37;5.97;;;3.23;;
17347;SDS011;8791;50.876;4.342;2022-11-20T13:49:06;3.87;;;3.17;;
17347;SDS011;8791;50.876;4.342;2022-11-20T13:51:37;4.50;;;3.70;;
17347;SDS011;8791;50.876;4.342;2022-11-20T13:54:34;3.97;;;3.00;;
17347;SDS011;8791;50.876;4.342;2022-11-20T14:00:41;3.63;;;2.97;;
17347;SDS011;8791;50.876;4.342;2022-11-20T14:03:13;5.23;;;3.03;;
17347;SDS011;8791;50.876;4.342;2022-11-20T14:05:46;3.50;;;3.20;;
17347;SDS011;8791;50.876;4.342;2022-11-20T14:08:21;5.63;;;3.27;;
17347;SDS011;8791;50.876;4.342;2022-11-20T14:11:02;4.83;;;2.83;;
17347;SDS011;8791;50.876;4.342;2022-11-20T14:13:30;9.10;;;3.57;;
17347;SDS011;8791;50.876;4.342;2022-11-20T14:15:58;5.17;;;2.90;;
17347;SDS011;8791;50.876;4.342;2022-11-20T14:18:25;5.70;;;3.77;;
17347;SDS011;8791;50.876;4.342;2022-11-20T14:20:52;5.30;;;3.03;;
17347;SDS011;8791;50.876;4.342;2022-11-20T14:23:23;3.90;;;3.53;;
17347;SDS011;8791;50.876;4.342;2022-11-20T14:25:51;4.73;;;3.20;;
17347;SDS011;8791;50.876;4.342;2022-11-20T14:28:20;5.20;;;4.23;;
17347;SDS011;8791;50.876;4.342;2022-11-20T14:30:51;8.23;;;4.47;;
17347;SDS011;8791;50.876;4.342;2022-11-20T14:33:20;9.63;;;4.93;;
17347;SDS011;8791;50.876;4.342;2022-11-20T14:35:50;5.17;;;4.37;;
17347;SDS011;8791;50.876;4.342;2022-11-20T14:38:21;7.57;;;6.27;;
17347;SDS011;8791;50.876;4.342;2022-11-20T14:40:51;10.20;;;5.97;;
17347;SDS011;8791;50.876;4.342;2022-11-20T14:43:19;7.30;;;6.30;;
17347;SDS011;8791;50.876;4.342;2022-11-20T14:45:54;8.27;;;5.43;;
17347;SDS011;8791;50.876;4.342;2022-11-20T14:48:26;5.23;;;4.73;;
17347;SDS011;8791;50.876;4.342;2022-11-20T14:50:56;8.40;;;6.27;;
17347;SDS011;8791;50.876;4.342;2022-11-20T14:53:24;8.83;;;5.67;;
17347;SDS011;8791;50.876;4.342;2022-11-20T14:55:55;8.97;;;5.33;;
17347;SDS011;8791;50.876;4.342;2022-11-20T14:58:24;9.43;;;6.70;;
17347;SDS011;8791;50.876;4.342;2022-11-20T15:00:53;9.27;;;4.93;;
17347;SDS011;8791;50.876;4.342;2022-11-20T15:03:21;8.27;;;4.93;;
17347;SDS011;8791;50.876;4.342;2022-11-20T15:05:50;7.47;;;5.73;;